createdAt,value
2022-10-22T00:00:51.938Z,101202.63
2022-10-22T00:03:42.163Z,101203.97
2022-10-22T00:06:31.487Z,101215.44
2022-10-22T00:09:21.554Z,101204.63
2022-10-22T00:12:10.702Z,101214.72
2022-10-22T00:15:00.734Z,101214.03
2022-10-22T00:17:51.317Z,101202.25
2022-10-22T00:20:44.393Z,101208.63
2022-10-22T00:23:33.997Z,101209.00
2022-10-22T00:26:23.402Z,101209.59
2022-10-22T00:34:50.458Z,101234.75
2022-10-22T00:37:39.708Z,101233.72
2022-10-22T00:40:30.398Z,101241.09
2022-10-22T00:43:21.013Z,101232.97
2022-10-22T00:46:10.584Z,101232.25
2022-10-22T00:49:02.241Z,101238.31
2022-10-22T00:51:51.254Z,101232.63
2022-10-22T00:54:41.844Z,101234.00
2022-10-22T00:57:30.812Z,101230.94
2022-10-22T01:00:20.023Z,101229.25
2022-10-22T01:03:08.743Z,101235.97
2022-10-22T01:06:01.234Z,101239.34
2022-10-22T01:09:14.552Z,101238.03
2022-10-22T01:12:22.246Z,101235.13
2022-10-22T01:15:28.589Z,101233.75
2022-10-22T01:18:34.878Z,101236.94
2022-10-22T01:21:36.701Z,101226.63
2022-10-22T01:25:10.518Z,101226.09
2022-10-22T01:28:11.275Z,101225.75
2022-10-22T01:31:04.883Z,101223.31
2022-10-22T01:33:55.147Z,101222.25
2022-10-22T01:36:45.370Z,101214.91
2022-10-22T01:39:36.033Z,101216.31
2022-10-22T01:42:25.986Z,101215.59
2022-10-22T01:45:15.757Z,101199.00
2022-10-22T01:48:28.402Z,101209.44
2022-10-22T01:51:32.223Z,101209.44
2022-10-22T01:54:50.748Z,101208.25
2022-10-22T01:57:45.129Z,101206.34
2022-10-22T02:00:34.594Z,101209.44
2022-10-22T02:03:28.194Z,101201.88
2022-10-22T02:06:20.961Z,101188.28
2022-10-22T02:09:10.422Z,101176.34
2022-10-22T02:14:58.485Z,101182.97
2022-10-22T02:17:49.276Z,101173.19
2022-10-22T02:20:40.580Z,101170.38
2022-10-22T02:23:29.753Z,101183.69
2022-10-22T02:26:29.798Z,101173.19
2022-10-22T02:29:26.378Z,101168.53
2022-10-22T02:32:19.720Z,101158.06
2022-10-22T02:35:11.332Z,101160.41
2022-10-22T02:38:01.475Z,101147.41
2022-10-22T02:40:53.333Z,101151.59
2022-10-22T02:43:43.959Z,101147.03
2022-10-22T02:46:32.737Z,101143.47
2022-10-22T02:49:21.669Z,101140.22
2022-10-22T02:52:10.921Z,101143.38
2022-10-22T02:55:01.282Z,101125.84
2022-10-22T02:57:50.435Z,101125.66
2022-10-22T03:00:39.582Z,101117.94
2022-10-22T03:03:28.683Z,101123.22
2022-10-22T03:06:17.530Z,101117.31
2022-10-22T03:09:06.690Z,101109.19
2022-10-22T03:11:55.652Z,101113.94
2022-10-22T03:14:44.933Z,101110.47
2022-10-22T03:17:37.051Z,101099.34
2022-10-22T03:20:26.885Z,101098.34
2022-10-22T03:23:18.074Z,101095.50
2022-10-22T03:26:08.167Z,101076.94
2022-10-22T03:28:57.411Z,101081.00
2022-10-22T03:31:46.254Z,101072.66
2022-10-22T03:34:35.420Z,101064.78
2022-10-22T03:37:25.593Z,101059.63
2022-10-22T03:40:14.871Z,101056.53
2022-10-22T03:43:04.284Z,101050.69
2022-10-22T03:45:53.409Z,101043.81
2022-10-22T03:48:42.299Z,101033.50
2022-10-22T03:51:35.183Z,101034.97
2022-10-22T03:54:24.658Z,101029.59
2022-10-22T03:57:14.180Z,101027.09
2022-10-22T04:00:04.380Z,101021.50
2022-10-22T04:02:54.290Z,101015.94
2022-10-22T04:05:43.766Z,100999.06
2022-10-22T04:08:33.133Z,101000.75
2022-10-22T04:11:22.657Z,100998.03
2022-10-22T04:14:13.023Z,100997.81
2022-10-22T04:17:02.043Z,100993.41
2022-10-22T04:19:51.208Z,100994.06
2022-10-22T04:22:40.519Z,100990.94
2022-10-22T04:25:30.077Z,100990.94
2022-10-22T04:28:19.769Z,100981.38
2022-10-22T04:31:14.412Z,100978.88
2022-10-22T04:34:03.728Z,100973.66
2022-10-22T04:36:54.443Z,100955.53
2022-10-22T04:39:43.254Z,100962.16
2022-10-22T04:42:33.394Z,100965.25
2022-10-22T04:45:22.648Z,100950.00
2022-10-22T04:48:16.447Z,100939.81
2022-10-22T04:51:07.678Z,100936.69
2022-10-22T04:53:56.930Z,100931.28
2022-10-22T04:56:45.642Z,100927.13
2022-10-22T04:59:34.958Z,100915.22
2022-10-22T05:02:24.362Z,100914.59
2022-10-22T05:05:13.480Z,100911.44
2022-10-22T05:08:03.193Z,100902.09
2022-10-22T05:10:54.606Z,100899.84
2022-10-22T05:13:43.938Z,100887.94
2022-10-22T05:16:34.079Z,100876.53
2022-10-22T05:19:26.508Z,100877.78
2022-10-22T05:22:15.423Z,100876.75
2022-10-22T05:25:04.827Z,100873.00
2022-10-22T05:27:58.401Z,100869.69
2022-10-22T05:30:58.505Z,100868.84
2022-10-22T05:33:47.941Z,100878.00
2022-10-22T05:36:37.070Z,100866.94
2022-10-22T05:39:25.704Z,100872.19
2022-10-22T05:42:14.669Z,100859.25
2022-10-22T05:45:03.925Z,100856.28
2022-10-22T05:47:53.350Z,100859.63
2022-10-22T05:51:15.449Z,100853.41
2022-10-22T05:54:07.197Z,100853.81
2022-10-22T05:56:56.621Z,100842.34
2022-10-22T05:59:45.223Z,100841.31
2022-10-22T06:02:35.760Z,100819.19
2022-10-22T06:05:27.095Z,100817.75
2022-10-22T06:08:18.962Z,100812.09
2022-10-22T06:11:08.625Z,100827.31
2022-10-22T06:13:59.169Z,100834.22
2022-10-22T06:16:48.115Z,100833.78
2022-10-22T06:19:37.419Z,100821.03
2022-10-22T06:22:26.583Z,100822.91
2022-10-22T06:25:15.534Z,100826.47
2022-10-22T06:28:04.847Z,100825.19
2022-10-22T06:30:53.713Z,100811.84
2022-10-22T06:33:45.374Z,100797.06
2022-10-22T06:36:34.704Z,100801.22
2022-10-22T06:39:23.356Z,100791.84
2022-10-22T06:42:12.183Z,100788.91
2022-10-22T06:45:04.349Z,100782.00
2022-10-22T06:47:53.199Z,100787.03
2022-10-22T06:50:42.902Z,100793.28
2022-10-22T06:53:31.896Z,100784.69
2022-10-22T06:56:24.837Z,100780.72
2022-10-22T06:59:13.785Z,100779.06
2022-10-22T07:02:03.699Z,100780.69
2022-10-22T07:04:53.123Z,100776.50
2022-10-22T07:07:42.097Z,100779.00
2022-10-22T07:10:31.021Z,100771.50
2022-10-22T07:13:21.088Z,100766.69
2022-10-22T07:16:11.659Z,100762.31
2022-10-22T07:19:01.658Z,100763.97
2022-10-22T07:21:50.947Z,100760.22
2022-10-22T07:24:43.403Z,100754.81
2022-10-22T07:27:36.932Z,100752.97
2022-10-22T07:30:25.982Z,100741.50
2022-10-22T07:33:15.054Z,100740.66
2022-10-22T07:36:07.382Z,100744.38
2022-10-22T07:38:59.281Z,100756.25
2022-10-22T07:41:48.028Z,100762.72
2022-10-22T07:44:37.080Z,100763.94
2022-10-22T07:47:26.255Z,100759.16
2022-10-22T07:50:15.688Z,100768.94
2022-10-22T07:53:07.198Z,100761.84
2022-10-22T07:55:56.329Z,100762.91
2022-10-22T07:58:45.326Z,100763.53
2022-10-22T08:01:38.635Z,100771.66
2022-10-22T08:04:28.937Z,100781.47
2022-10-22T08:07:18.169Z,100784.59
2022-10-22T08:10:08.364Z,100787.31
2022-10-22T08:12:58.257Z,100789.38
2022-10-22T08:15:49.648Z,100794.81
2022-10-22T08:18:40.524Z,100795.44
2022-10-22T08:21:29.517Z,100793.13
2022-10-22T08:24:47.501Z,100792.66
2022-10-22T08:27:38.945Z,100797.84
2022-10-22T08:30:30.880Z,100806.38
2022-10-22T08:33:19.907Z,100808.47
2022-10-22T08:36:10.309Z,100810.28
2022-10-22T08:38:59.413Z,100808.63
2022-10-22T08:41:59.837Z,100806.72
2022-10-22T08:45:12.741Z,100810.84
2022-10-22T08:48:21.810Z,100816.28
2022-10-22T08:51:17.029Z,100818.66
2022-10-22T08:54:24.479Z,100821.22
2022-10-22T09:00:39.465Z,100828.69
2022-10-22T09:04:05.947Z,100827.81
2022-10-22T09:06:56.028Z,100832.59
2022-10-22T09:09:49.180Z,100847.28
2022-10-22T09:12:38.537Z,100845.56
2022-10-22T09:15:27.956Z,100846.00
2022-10-22T09:18:35.385Z,100847.69
2022-10-22T09:21:45.935Z,100847.69
2022-10-22T09:24:48.507Z,100852.19
2022-10-22T09:27:38.625Z,100859.00
2022-10-22T09:30:33.668Z,100862.38
2022-10-22T09:33:33.782Z,100871.31
2022-10-22T09:36:24.351Z,100866.75
2022-10-22T09:39:31.331Z,100876.53
2022-10-22T09:42:22.574Z,100879.25
2022-10-22T09:45:23.223Z,100882.13
2022-10-22T09:48:22.696Z,100889.22
2022-10-22T09:51:23.090Z,100882.13
2022-10-22T09:54:18.663Z,100885.41
2022-10-22T09:57:17.612Z,100889.97
2022-10-22T10:00:10.580Z,100893.44
2022-10-22T10:03:01.747Z,100893.66
2022-10-22T10:05:55.168Z,100904.06
2022-10-22T10:08:44.419Z,100901.97
2022-10-22T10:11:45.167Z,100904.84
2022-10-22T10:14:39.201Z,100909.63
2022-10-22T10:17:31.061Z,100902.34
2022-10-22T10:20:45.282Z,100910.66
2022-10-22T10:23:52.389Z,100917.28
2022-10-22T10:26:45.113Z,100914.88
2022-10-22T10:29:52.942Z,100914.50
2022-10-22T10:33:03.153Z,100921.78
2022-10-22T10:36:26.677Z,100929.69
2022-10-22T10:39:42.617Z,100928.03
2022-10-22T10:42:35.305Z,100931.75
2022-10-22T10:45:34.379Z,100937.16
2022-10-22T10:48:52.265Z,100937.16
2022-10-22T10:51:55.759Z,100947.59
2022-10-22T10:55:12.628Z,100946.94
2022-10-22T10:58:30.895Z,100941.28
2022-10-22T11:01:51.373Z,100948.34
2022-10-22T11:04:53.716Z,100953.75
2022-10-22T11:07:52.291Z,100959.16
2022-10-22T11:10:52.421Z,100961.22
2022-10-22T11:14:00.635Z,100969.97
2022-10-22T11:17:03.490Z,100969.97
2022-10-22T11:20:07.310Z,100967.47
2022-10-22T11:23:20.935Z,100969.53
2022-10-22T11:26:34.476Z,100974.94
2022-10-22T11:29:29.385Z,100981.56
2022-10-22T11:32:22.916Z,100992.75
2022-10-22T11:35:22.229Z,100988.91
2022-10-22T11:38:22.059Z,100991.97
2022-10-22T11:41:15.199Z,101009.88
2022-10-22T11:44:10.540Z,101015.66
2022-10-22T11:47:05.993Z,101029.19
2022-10-22T11:50:05.151Z,101025.19
2022-10-22T11:53:04.226Z,101036.63
2022-10-22T11:56:00.781Z,101040.75
2022-10-22T11:58:53.815Z,101044.75
2022-10-22T12:01:47.745Z,101054.91
2022-10-22T12:04:44.062Z,101060.13
2022-10-22T12:07:58.085Z,101067.28
2022-10-22T12:11:05.259Z,101063.50
2022-10-22T12:14:16.506Z,101062.91
2022-10-22T12:17:15.783Z,101070.84
2022-10-22T12:20:15.813Z,101066.09
2022-10-22T12:23:06.301Z,101072.16
2022-10-22T12:25:59.431Z,101070.09
2022-10-22T12:28:47.926Z,101071.13
2022-10-22T12:31:39.521Z,101083.97
2022-10-22T12:34:30.447Z,101071.59
2022-10-22T12:37:20.703Z,101075.13
2022-10-22T12:40:45.891Z,101071.00
2022-10-22T12:43:40.561Z,101082.56
2022-10-22T12:46:30.435Z,101089.66
2022-10-22T12:49:22.885Z,101087.34
2022-10-22T12:52:18.059Z,101094.63
2022-10-22T12:55:11.144Z,101090.91
2022-10-22T12:58:07.576Z,101097.50
2022-10-22T13:01:02.970Z,101099.25
2022-10-22T13:04:04.914Z,101114.47
2022-10-22T13:07:16.976Z,101114.47
2022-10-22T13:10:28.957Z,101115.69
2022-10-22T13:13:36.689Z,101106.72
2022-10-22T13:16:28.747Z,101105.22
2022-10-22T13:19:41.450Z,101101.00
2022-10-22T13:22:42.486Z,101098.31
2022-10-22T13:25:38.264Z,101093.91
2022-10-22T13:28:27.572Z,101094.28
2022-10-22T13:31:21.636Z,101101.09
2022-10-22T13:34:20.234Z,101105.47
2022-10-22T13:37:10.943Z,101098.75
2022-10-22T13:40:01.068Z,101104.16
2022-10-22T13:42:50.731Z,101105.19
2022-10-22T13:45:40.289Z,101096.81
2022-10-22T13:48:30.458Z,101099.34
2022-10-22T13:51:25.366Z,101094.31
2022-10-22T13:54:20.022Z,101094.09
2022-10-22T13:57:12.177Z,101092.63
2022-10-22T14:00:01.598Z,101095.13
2022-10-22T14:03:01.326Z,101101.19
2022-10-22T14:05:50.971Z,101099.13
2022-10-22T14:08:41.365Z,101090.75
2022-10-22T14:11:36.096Z,101089.06
2022-10-22T14:14:27.401Z,101094.88
2022-10-22T14:17:18.263Z,101097.94
2022-10-22T14:20:07.988Z,101104.38
2022-10-22T14:22:57.474Z,101091.22
2022-10-22T14:25:46.243Z,101088.81
2022-10-22T14:28:41.253Z,101094.00
2022-10-22T14:31:45.065Z,101101.19
2022-10-22T14:34:33.983Z,101083.84
2022-10-22T14:37:24.607Z,101095.53
2022-10-22T14:40:18.565Z,101094.66
2022-10-22T14:43:07.617Z,101094.66
2022-10-22T14:45:59.764Z,101087.59
2022-10-22T14:48:49.874Z,101084.72
2022-10-22T14:51:40.155Z,101082.19
2022-10-22T14:54:29.273Z,101088.44
2022-10-22T14:57:18.686Z,101086.75
2022-10-22T15:00:10.891Z,101077.16
2022-10-22T15:03:03.406Z,101077.16
2022-10-22T15:05:55.076Z,101074.66
2022-10-22T15:08:44.016Z,101069.03
2022-10-22T15:11:33.529Z,101068.38
2022-10-22T15:14:22.967Z,101070.28
2022-10-22T15:17:12.193Z,101071.09
2022-10-22T15:20:04.995Z,101068.75
2022-10-22T15:22:54.554Z,101072.50
2022-10-22T15:25:45.277Z,101057.97
2022-10-22T15:28:34.741Z,101064.22
2022-10-22T15:31:46.963Z,101056.66
2022-10-22T15:34:37.717Z,101052.94
2022-10-22T15:37:29.612Z,101050.44
2022-10-22T15:40:19.094Z,101060.41
2022-10-22T15:43:28.881Z,101053.31
2022-10-22T15:46:20.318Z,101050.63
2022-10-22T15:49:09.435Z,101051.44
2022-10-22T15:51:58.282Z,101048.75
2022-10-22T15:54:47.363Z,101056.66
2022-10-22T15:57:36.266Z,101056.66
2022-10-22T16:00:26.700Z,101057.06
2022-10-22T16:03:15.665Z,101053.31
2022-10-22T16:06:10.246Z,101047.28
2022-10-22T16:09:01.548Z,101051.66
2022-10-22T16:14:46.837Z,101034.41
2022-10-22T16:17:36.611Z,101038.16
2022-10-22T16:20:26.667Z,101038.16
2022-10-22T16:23:19.648Z,101032.09
2022-10-22T16:26:08.696Z,101033.78
2022-10-22T16:28:57.494Z,101024.00
2022-10-22T16:31:47.335Z,101018.75
2022-10-22T16:34:39.112Z,101012.53
2022-10-22T16:37:29.326Z,100998.38
2022-10-22T16:40:18.696Z,100991.28
2022-10-22T16:43:07.874Z,100991.28
2022-10-22T16:45:56.811Z,100987.56
2022-10-22T16:48:49.668Z,100987.94
2022-10-22T16:51:38.655Z,100975.47
2022-10-22T16:54:29.004Z,100975.47
2022-10-22T16:57:18.407Z,100970.44
2022-10-22T17:00:08.337Z,100967.75
2022-10-22T17:02:57.721Z,100960.66
2022-10-22T17:05:46.754Z,100957.97
2022-10-22T17:08:38.392Z,100966.22
2022-10-22T17:11:30.821Z,100963.75
2022-10-22T17:14:19.775Z,100955.63
2022-10-22T17:17:08.960Z,100953.97
2022-10-22T17:19:57.778Z,100949.22
2022-10-22T17:22:49.171Z,100945.84
2022-10-22T17:25:44.131Z,100940.47
2022-10-22T17:28:33.147Z,100933.38
2022-10-22T17:31:28.679Z,100935.44
2022-10-22T17:34:23.173Z,100926.69
2022-10-22T17:37:13.298Z,100919.59
2022-10-22T17:40:04.040Z,100921.28
2022-10-22T17:42:52.670Z,100918.75
2022-10-22T17:45:41.819Z,100918.28
2022-10-22T17:48:30.880Z,100915.38
2022-10-22T17:51:21.511Z,100912.13
2022-10-22T17:54:11.879Z,100902.72
2022-10-22T17:57:01.295Z,100895.63
2022-10-22T17:59:50.366Z,100893.13
2022-10-22T18:02:39.854Z,100897.22
2022-10-22T18:05:29.208Z,100902.81
2022-10-22T18:08:18.476Z,100897.59
2022-10-22T18:11:11.883Z,100896.66
2022-10-22T18:14:00.923Z,100891.66
2022-10-22T18:16:53.178Z,100891.00
2022-10-22T18:19:42.063Z,100878.53
2022-10-22T18:22:33.140Z,100871.44
2022-10-22T18:25:22.814Z,100867.81
2022-10-22T18:28:20.155Z,100873.94
2022-10-22T18:31:12.345Z,100876.97
2022-10-22T18:34:04.198Z,100870.28
2022-10-22T18:36:54.090Z,100863.88
2022-10-22T18:39:43.184Z,100871.66
2022-10-22T18:42:34.568Z,100875.75
2022-10-22T18:45:25.745Z,100876.41
2022-10-22T18:48:19.555Z,100878.28
2022-10-22T18:51:10.247Z,100878.16
2022-10-22T18:54:21.726Z,100878.66
2022-10-22T18:57:11.992Z,100882.72
2022-10-22T19:00:00.931Z,100877.72
2022-10-22T19:02:49.945Z,100886.44
2022-10-22T19:05:53.328Z,100878.53
2022-10-22T19:08:44.836Z,100871.16
2022-10-22T19:11:34.652Z,100877.22
2022-10-22T19:14:23.859Z,100870.16
2022-10-22T19:17:13.854Z,100860.94
2022-10-22T19:20:03.863Z,100864.47
2022-10-22T19:22:54.351Z,100865.47
2022-10-22T19:25:44.133Z,100864.81
2022-10-22T19:28:33.462Z,100861.31
2022-10-22T19:31:24.491Z,100872.09
2022-10-22T19:34:13.458Z,100867.06
2022-10-22T19:37:03.768Z,100864.53
2022-10-22T19:39:53.085Z,100864.91
2022-10-22T19:42:45.143Z,100866.56
2022-10-22T19:45:34.248Z,100862.41
2022-10-22T19:48:23.574Z,100863.88
2022-10-22T19:51:18.083Z,100854.47
2022-10-22T19:54:10.112Z,100864.63
2022-10-22T19:56:59.287Z,100863.59
2022-10-22T19:59:50.265Z,100871.03
2022-10-22T20:02:39.883Z,100881.81
2022-10-22T20:05:28.653Z,100880.16
2022-10-22T20:08:18.506Z,100890.06
2022-10-22T20:11:13.195Z,100883.88
2022-10-22T20:14:02.816Z,100896.47
2022-10-22T20:16:51.708Z,100897.69
2022-10-22T20:19:40.625Z,100894.16
2022-10-22T20:22:29.437Z,100894.66
2022-10-22T20:25:20.017Z,100907.78
2022-10-22T20:28:08.609Z,100914.56
2022-10-22T20:31:00.451Z,100920.59
2022-10-22T20:33:50.015Z,100915.56
2022-10-22T20:36:39.547Z,100922.63
2022-10-22T20:39:28.253Z,100925.03
2022-10-22T20:42:18.394Z,100920.31
2022-10-22T20:45:08.080Z,100928.38
2022-10-22T20:48:02.585Z,100921.31
2022-10-22T20:50:51.644Z,100926.69
2022-10-22T20:53:41.281Z,100931.44
2022-10-22T20:56:30.237Z,100932.91
2022-10-22T20:59:20.808Z,100936.16
2022-10-22T21:02:10.904Z,100935.31
2022-10-22T21:05:00.237Z,100936.53
2022-10-22T21:07:52.218Z,100940.22
2022-10-22T21:10:41.108Z,100939.38
2022-10-22T21:13:33.534Z,100940.59
2022-10-22T21:16:22.723Z,100932.66
2022-10-22T21:19:12.881Z,100935.34
2022-10-22T21:22:02.173Z,100946.78
2022-10-22T21:24:51.179Z,100948.66
2022-10-22T21:27:40.540Z,100956.75
2022-10-22T21:30:29.511Z,100951.06
2022-10-22T21:33:19.382Z,100953.41
2022-10-22T21:36:09.966Z,100950.03
2022-10-22T21:38:59.084Z,100953.75
2022-10-22T21:41:48.249Z,100955.78
2022-10-22T21:44:37.786Z,100949.72
2022-10-22T21:47:26.744Z,100947.50
2022-10-22T21:50:15.898Z,100955.78
2022-10-22T21:53:05.038Z,100961.50
2022-10-22T21:55:54.539Z,100968.59
2022-10-22T21:58:43.650Z,100960.50
2022-10-22T22:01:38.311Z,100963.19
2022-10-22T22:04:28.844Z,100963.19
2022-10-22T22:07:21.092Z,100971.28
2022-10-22T22:10:10.623Z,100981.38
2022-10-22T22:12:59.691Z,101002.94
2022-10-22T22:15:48.544Z,101003.59
2022-10-22T22:18:39.194Z,101010.66
2022-10-22T22:21:28.401Z,101012.69
2022-10-22T22:24:17.439Z,101014.19
2022-10-22T22:27:06.723Z,101017.91
2022-10-22T22:29:56.593Z,101017.06
2022-10-22T22:32:45.467Z,101015.75
2022-10-22T22:38:32.548Z,101000.94
2022-10-22T22:41:21.552Z,101013.22
2022-10-22T22:44:11.561Z,101019.44
2022-10-22T22:47:01.554Z,101016.91
2022-10-22T22:49:53.136Z,101016.09
2022-10-22T22:52:42.726Z,101028.56
2022-10-22T22:55:32.940Z,101041.34
2022-10-22T22:58:24.443Z,101045.88
2022-10-22T23:01:25.275Z,101052.78
2022-10-22T23:04:19.911Z,101053.81
2022-10-22T23:07:09.375Z,101057.31
2022-10-22T23:09:58.386Z,101071.13
2022-10-22T23:12:51.527Z,101077.38
2022-10-22T23:15:41.508Z,101080.75
2022-10-22T23:18:30.381Z,101088.81
2022-10-22T23:21:24.278Z,101085.78
2022-10-22T23:24:16.378Z,101089.50
2022-10-22T23:27:05.920Z,101082.06
2022-10-22T23:29:55.167Z,101085.78
2022-10-22T23:32:44.642Z,101090.84
2022-10-22T23:35:33.614Z,101094.53
2022-10-22T23:38:23.191Z,101106.66
2022-10-22T23:41:12.673Z,101106.66
2022-10-22T23:44:01.570Z,101111.53
2022-10-22T23:46:50.831Z,101105.59
2022-10-22T23:49:39.896Z,101108.63
2022-10-22T23:52:32.819Z,101104.56
2022-10-22T23:55:22.429Z,101100.84
2022-10-22T23:58:12.250Z,101105.56
